sensor_id;sensor_type;location;lat;lon;timestamp;temperature;humidity
18823;DHT22;9540;51.550;7.980;2023-03-11T00:00:53;0.50;99.90
18823;DHT22;9540;51.550;7.980;2023-03-11T00:03:20;0.50;99.90
18823;DHT22;9540;51.550;7.980;2023-03-11T00:05:49;0.50;99.90
18823;DHT22;9540;51.550;7.980;2023-03-11T00:08:18;0.50;99.90
18823;DHT22;9540;51.550;7.980;2023-03-11T00:10:47;0.40;99.90
18823;DHT22;9540;51.550;7.980;2023-03-11T00:13:17;0.40;99.90
18823;DHT22;9540;51.550;7.980;2023-03-11T00:15:48;0.40;99.90
18823;DHT22;9540;51.550;7.980;2023-03-11T00:18:16;0.40;99.90
18823;DHT22;9540;51.550;7.980;2023-03-11T00:20:45;0.40;99.90
18823;DHT22;9540;51.550;7.980;2023-03-11T00:23:13;0.40;99.90
18823;DHT22;9540;51.550;7.980;2023-03-11T00:25:42;0.40;99.90
18823;DHT22;9540;51.550;7.980;2023-03-11T00:28:10;0.40;99.90
18823;DHT22;9540;51.550;7.980;2023-03-11T00:30:37;0.40;99.90
18823;DHT22;9540;51.550;7.980;2023-03-11T00:33:07;0.40;99.90
18823;DHT22;9540;51.550;7.980;2023-03-11T00:35:34;0.40;99.90
18823;DHT22;9540;51.550;7.980;2023-03-11T00:38:04;0.40;99.90
18823;DHT22;9540;51.550;7.980;2023-03-11T00:40:33;0.40;99.90
18823;DHT22;9540;51.550;7.980;2023-03-11T00:43:01;0.30;99.90
18823;DHT22;9540;51.550;7.980;2023-03-11T00:45:29;0.30;99.90
18823;DHT22;9540;51.550;7.980;2023-03-11T00:47:56;0.40;99.90
18823;DHT22;9540;51.550;7.980;2023-03-11T00:50:27;0.40;99.90
18823;DHT22;9540;51.550;7.980;2023-03-11T00:52:54;0.40;99.90
18823;DHT22;9540;51.550;7.980;2023-03-11T00:55:23;0.30;99.90
18823;DHT22;9540;51.550;7.980;2023-03-11T00:57:51;0.30;99.90
18823;DHT22;9540;51.550;7.980;2023-03-11T01:00:20;0.20;99.90
18823;DHT22;9540;51.550;7.980;2023-03-11T01:02:47;0.20;99.90
18823;DHT22;9540;51.550;7.980;2023-03-11T01:05:17;0.20;99.90
18823;DHT22;9540;51.550;7.980;2023-03-11T01:07:45;0.20;99.90
18823;DHT22;9540;51.550;7.980;2023-03-11T01:10:13;0.20;99.90
18823;DHT22;9540;51.550;7.980;2023-03-11T01:12:41;0.30;99.90
18823;DHT22;9540;51.550;7.980;2023-03-11T01:15:10;0.30;99.90
18823;DHT22;9540;51.550;7.980;2023-03-11T01:17:40;0.30;99.90
18823;DHT22;9540;51.550;7.980;2023-03-11T01:20:09;0.30;99.90
18823;DHT22;9540;51.550;7.980;2023-03-11T01:22:36;0.30;99.90
18823;DHT22;9540;51.550;7.980;2023-03-11T01:25:06;0.30;99.90
18823;DHT22;9540;51.550;7.980;2023-03-11T01:27:34;0.30;99.90
18823;DHT22;9540;51.550;7.980;2023-03-11T01:30:02;0.30;99.90
18823;DHT22;9540;51.550;7.980;2023-03-11T01:32:30;0.20;99.90
18823;DHT22;9540;51.550;7.980;2023-03-11T01:34:57;0.20;99.90
18823;DHT22;9540;51.550;7.980;2023-03-11T01:37:24;0.20;99.90
18823;DHT22;9540;51.550;7.980;2023-03-11T01:39:52;0.20;99.90
18823;DHT22;9540;51.550;7.980;2023-03-11T01:42:20;0.20;99.90
18823;DHT22;9540;51.550;7.980;2023-03-11T01:44:47;0.20;99.90
18823;DHT22;9540;51.550;7.980;2023-03-11T01:47:34;0.20;99.90
18823;DHT22;9540;51.550;7.980;2023-03-11T01:50:04;0.20;99.90
18823;DHT22;9540;51.550;7.980;2023-03-11T01:52:32;0.20;99.90
18823;DHT22;9540;51.550;7.980;2023-03-11T01:54:59;0.20;99.90
18823;DHT22;9540;51.550;7.980;2023-03-11T01:57:28;0.20;99.90
18823;DHT22;9540;51.550;7.980;2023-03-11T01:59:57;0.20;99.90
18823;DHT22;9540;51.550;7.980;2023-03-11T02:02:33;0.20;99.90
18823;DHT22;9540;51.550;7.980;2023-03-11T02:05:02;0.20;99.90
18823;DHT22;9540;51.550;7.980;2023-03-11T02:07:29;0.20;99.90
18823;DHT22;9540;51.550;7.980;2023-03-11T02:09:57;0.20;99.90
18823;DHT22;9540;51.550;7.980;2023-03-11T02:12:30;0.20;99.90
18823;DHT22;9540;51.550;7.980;2023-03-11T02:14:59;0.20;99.90
18823;DHT22;9540;51.550;7.980;2023-03-11T02:17:27;0.20;99.90
18823;DHT22;9540;51.550;7.980;2023-03-11T02:20:06;0.20;99.90
18823;DHT22;9540;51.550;7.980;2023-03-11T02:22:37;0.20;99.90
18823;DHT22;9540;51.550;7.980;2023-03-11T02:25:09;0.20;99.90
18823;DHT22;9540;51.550;7.980;2023-03-11T02:27:40;0.20;99.90
18823;DHT22;9540;51.550;7.980;2023-03-11T02:30:11;0.20;99.90
18823;DHT22;9540;51.550;7.980;2023-03-11T02:32:39;0.20;99.90
18823;DHT22;9540;51.550;7.980;2023-03-11T02:35:07;0.20;99.90
18823;DHT22;9540;51.550;7.980;2023-03-11T02:37:34;0.20;99.90
18823;DHT22;9540;51.550;7.980;2023-03-11T02:40:40;0.20;99.90
18823;DHT22;9540;51.550;7.980;2023-03-11T02:43:13;0.20;99.90
18823;DHT22;9540;51.550;7.980;2023-03-11T02:45:43;0.20;99.90
18823;DHT22;9540;51.550;7.980;2023-03-11T02:48:11;0.20;99.90
18823;DHT22;9540;51.550;7.980;2023-03-11T02:50:38;0.20;99.90
18823;DHT22;9540;51.550;7.980;2023-03-11T02:53:06;0.20;99.90
18823;DHT22;9540;51.550;7.980;2023-03-11T02:55:35;0.30;99.90
18823;DHT22;9540;51.550;7.980;2023-03-11T02:58:02;0.30;99.90
18823;DHT22;9540;51.550;7.980;2023-03-11T03:00:33;0.30;99.90
18823;DHT22;9540;51.550;7.980;2023-03-11T03:03:00;0.30;99.90
18823;DHT22;9540;51.550;7.980;2023-03-11T03:05:28;0.30;99.90
18823;DHT22;9540;51.550;7.980;2023-03-11T03:07:55;0.30;99.90
18823;DHT22;9540;51.550;7.980;2023-03-11T03:10:22;0.30;99.90
18823;DHT22;9540;51.550;7.980;2023-03-11T03:12:49;0.30;99.90
18823;DHT22;9540;51.550;7.980;2023-03-11T03:15:16;0.30;99.90
18823;DHT22;9540;51.550;7.980;2023-03-11T03:17:45;0.30;99.90
18823;DHT22;9540;51.550;7.980;2023-03-11T03:20:13;0.30;99.90
18823;DHT22;9540;51.550;7.980;2023-03-11T03:22:41;0.30;99.90
18823;DHT22;9540;51.550;7.980;2023-03-11T03:25:09;0.30;99.90
18823;DHT22;9540;51.550;7.980;2023-03-11T03:27:37;0.30;99.90
18823;DHT22;9540;51.550;7.980;2023-03-11T03:30:05;0.30;99.90
18823;DHT22;9540;51.550;7.980;2023-03-11T03:32:33;0.30;99.90
18823;DHT22;9540;51.550;7.980;2023-03-11T03:35:03;0.30;99.90
18823;DHT22;9540;51.550;7.980;2023-03-11T03:37:35;0.30;99.90
18823;DHT22;9540;51.550;7.980;2023-03-11T03:40:04;0.30;99.90
18823;DHT22;9540;51.550;7.980;2023-03-11T03:42:33;0.30;99.90
18823;DHT22;9540;51.550;7.980;2023-03-11T03:45:00;0.30;99.90
18823;DHT22;9540;51.550;7.980;2023-03-11T03:47:27;0.30;99.90
18823;DHT22;9540;51.550;7.980;2023-03-11T03:49:54;0.30;99.90
18823;DHT22;9540;51.550;7.980;2023-03-11T03:52:23;0.30;99.90
18823;DHT22;9540;51.550;7.980;2023-03-11T03:54:50;0.30;99.90
18823;DHT22;9540;51.550;7.980;2023-03-11T03:57:17;0.30;99.90
18823;DHT22;9540;51.550;7.980;2023-03-11T03:59:44;0.30;99.90
18823;DHT22;9540;51.550;7.980;2023-03-11T04:02:11;0.30;99.90
18823;DHT22;9540;51.550;7.980;2023-03-11T04:04:39;0.20;99.90
18823;DHT22;9540;51.550;7.980;2023-03-11T04:07:06;0.20;99.90
18823;DHT22;9540;51.550;7.980;2023-03-11T04:09:37;0.20;99.90
18823;DHT22;9540;51.550;7.980;2023-03-11T04:12:04;0.20;99.90
18823;DHT22;9540;51.550;7.980;2023-03-11T04:14:32;0.20;99.90
18823;DHT22;9540;51.550;7.980;2023-03-11T04:16:59;0.20;99.90
18823;DHT22;9540;51.550;7.980;2023-03-11T04:19:26;0.20;99.90
18823;DHT22;9540;51.550;7.980;2023-03-11T04:21:53;0.10;99.90
18823;DHT22;9540;51.550;7.980;2023-03-11T04:24:20;0.10;99.90
18823;DHT22;9540;51.550;7.980;2023-03-11T04:26:49;0.10;99.90
18823;DHT22;9540;51.550;7.980;2023-03-11T04:29:16;0.10;99.90
18823;DHT22;9540;51.550;7.980;2023-03-11T04:31:43;0.10;99.90
18823;DHT22;9540;51.550;7.980;2023-03-11T04:34:11;0.10;99.90
18823;DHT22;9540;51.550;7.980;2023-03-11T04:36:38;0.10;99.90
18823;DHT22;9540;51.550;7.980;2023-03-11T04:39:05;0.10;99.90
18823;DHT22;9540;51.550;7.980;2023-03-11T04:41:32;0.10;99.90
18823;DHT22;9540;51.550;7.980;2023-03-11T04:44:01;0.10;99.90
18823;DHT22;9540;51.550;7.980;2023-03-11T04:46:28;0.10;99.90
18823;DHT22;9540;51.550;7.980;2023-03-11T04:48:55;0.10;99.90
18823;DHT22;9540;51.550;7.980;2023-03-11T04:51:22;0.10;99.90
18823;DHT22;9540;51.550;7.980;2023-03-11T04:53:49;0.10;99.90
18823;DHT22;9540;51.550;7.980;2023-03-11T04:56:17;0.10;99.90
18823;DHT22;9540;51.550;7.980;2023-03-11T04:58:44;0.10;99.90
18823;DHT22;9540;51.550;7.980;2023-03-11T05:01:12;0.10;99.90
18823;DHT22;9540;51.550;7.980;2023-03-11T05:03:39;0.10;99.90
18823;DHT22;9540;51.550;7.980;2023-03-11T05:06:07;0.10;99.90
18823;DHT22;9540;51.550;7.980;2023-03-11T05:08:34;0.10;99.90
18823;DHT22;9540;51.550;7.980;2023-03-11T05:11:01;0.10;99.90
18823;DHT22;9540;51.550;7.980;2023-03-11T05:13:28;0.10;99.90
18823;DHT22;9540;51.550;7.980;2023-03-11T05:15:55;0.00;99.90
18823;DHT22;9540;51.550;7.980;2023-03-11T05:18:24;0.10;99.90
18823;DHT22;9540;51.550;7.980;2023-03-11T05:20:51;0.10;99.90
18823;DHT22;9540;51.550;7.980;2023-03-11T05:23:19;0.10;99.90
18823;DHT22;9540;51.550;7.980;2023-03-11T05:25:46;0.10;99.90
18823;DHT22;9540;51.550;7.980;2023-03-11T05:28:13;0.10;99.90
18823;DHT22;9540;51.550;7.980;2023-03-11T05:30:40;0.10;99.90
18823;DHT22;9540;51.550;7.980;2023-03-11T05:33:07;0.10;99.90
18823;DHT22;9540;51.550;7.980;2023-03-11T05:35:36;0.00;99.90
18823;DHT22;9540;51.550;7.980;2023-03-11T05:38:03;0.00;99.90
18823;DHT22;9540;51.550;7.980;2023-03-11T05:40:30;0.00;99.90
18823;DHT22;9540;51.550;7.980;2023-03-11T05:42:57;0.00;99.90
18823;DHT22;9540;51.550;7.980;2023-03-11T05:45:24;0.00;99.90
18823;DHT22;9540;51.550;7.980;2023-03-11T05:47:51;0.00;99.90
18823;DHT22;9540;51.550;7.980;2023-03-11T05:50:18;0.00;99.90
18823;DHT22;9540;51.550;7.980;2023-03-11T05:52:47;0.00;99.90
18823;DHT22;9540;51.550;7.980;2023-03-11T05:55:14;0.00;99.90
18823;DHT22;9540;51.550;7.980;2023-03-11T05:57:41;0.00;99.90
18823;DHT22;9540;51.550;7.980;2023-03-11T06:00:10;0.00;99.90
18823;DHT22;9540;51.550;7.980;2023-03-11T06:02:38;0.00;99.90
18823;DHT22;9540;51.550;7.980;2023-03-11T06:05:06;0.00;99.90
18823;DHT22;9540;51.550;7.980;2023-03-11T06:07:34;0.00;99.90
18823;DHT22;9540;51.550;7.980;2023-03-11T06:10:03;0.00;99.90
18823;DHT22;9540;51.550;7.980;2023-03-11T06:12:33;0.00;99.90
18823;DHT22;9540;51.550;7.980;2023-03-11T06:15:00;0.00;99.90
18823;DHT22;9540;51.550;7.980;2023-03-11T06:17:27;0.10;99.90
18823;DHT22;9540;51.550;7.980;2023-03-11T06:19:54;0.10;99.90
18823;DHT22;9540;51.550;7.980;2023-03-11T06:22:21;0.10;99.90
18823;DHT22;9540;51.550;7.980;2023-03-11T06:24:49;0.10;99.90
18823;DHT22;9540;51.550;7.980;2023-03-11T06:27:17;0.20;99.90
18823;DHT22;9540;51.550;7.980;2023-03-11T06:29:44;0.20;99.90
18823;DHT22;9540;51.550;7.980;2023-03-11T06:32:12;0.20;99.90
18823;DHT22;9540;51.550;7.980;2023-03-11T06:34:39;0.20;99.90
18823;DHT22;9540;51.550;7.980;2023-03-11T06:37:06;0.20;99.90
18823;DHT22;9540;51.550;7.980;2023-03-11T06:39:33;0.30;99.90
18823;DHT22;9540;51.550;7.980;2023-03-11T06:42:00;0.30;99.90
18823;DHT22;9540;51.550;7.980;2023-03-11T06:44:30;0.30;99.90
18823;DHT22;9540;51.550;7.980;2023-03-11T06:46:57;0.40;99.90
18823;DHT22;9540;51.550;7.980;2023-03-11T06:49:24;0.40;99.90
18823;DHT22;9540;51.550;7.980;2023-03-11T06:51:51;0.40;99.90
18823;DHT22;9540;51.550;7.980;2023-03-11T06:54:18;0.40;99.90
18823;DHT22;9540;51.550;7.980;2023-03-11T06:56:45;0.40;99.90
18823;DHT22;9540;51.550;7.980;2023-03-11T06:59:13;0.60;99.90
18823;DHT22;9540;51.550;7.980;2023-03-11T07:01:42;0.60;99.90
18823;DHT22;9540;51.550;7.980;2023-03-11T07:04:10;0.80;99.90
18823;DHT22;9540;51.550;7.980;2023-03-11T07:06:37;0.80;99.90
18823;DHT22;9540;51.550;7.980;2023-03-11T07:09:04;0.70;99.90
18823;DHT22;9540;51.550;7.980;2023-03-11T07:11:32;0.70;99.90
18823;DHT22;9540;51.550;7.980;2023-03-11T07:13:59;1.00;99.90
18823;DHT22;9540;51.550;7.980;2023-03-11T07:16:27;1.70;99.90
18823;DHT22;9540;51.550;7.980;2023-03-11T07:18:58;2.40;99.90
18823;DHT22;9540;51.550;7.980;2023-03-11T07:21:28;2.70;99.90
18823;DHT22;9540;51.550;7.980;2023-03-11T07:23:57;2.80;99.90
18823;DHT22;9540;51.550;7.980;2023-03-11T07:26:25;2.90;99.90
18823;DHT22;9540;51.550;7.980;2023-03-11T07:28:54;3.00;99.90
18823;DHT22;9540;51.550;7.980;2023-03-11T07:31:24;3.00;99.90
18823;DHT22;9540;51.550;7.980;2023-03-11T07:33:51;2.70;99.90
18823;DHT22;9540;51.550;7.980;2023-03-11T07:36:22;2.40;99.90
18823;DHT22;9540;51.550;7.980;2023-03-11T07:38:54;2.30;99.90
18823;DHT22;9540;51.550;7.980;2023-03-11T07:41:23;2.30;99.90
18823;DHT22;9540;51.550;7.980;2023-03-11T07:43:53;2.00;99.90
18823;DHT22;9540;51.550;7.980;2023-03-11T07:46:21;1.90;99.90
18823;DHT22;9540;51.550;7.980;2023-03-11T07:48:49;1.90;99.90
18823;DHT22;9540;51.550;7.980;2023-03-11T07:51:18;2.00;99.90
18823;DHT22;9540;51.550;7.980;2023-03-11T07:53:47;2.10;99.90
18823;DHT22;9540;51.550;7.980;2023-03-11T07:56:16;2.20;99.90
18823;DHT22;9540;51.550;7.980;2023-03-11T07:58:44;2.40;99.90
18823;DHT22;9540;51.550;7.980;2023-03-11T08:01:12;2.60;99.90
18823;DHT22;9540;51.550;7.980;2023-03-11T08:03:41;2.90;99.90
18823;DHT22;9540;51.550;7.980;2023-03-11T08:06:12;3.10;99.90
18823;DHT22;9540;51.550;7.980;2023-03-11T08:08:39;3.00;99.90
18823;DHT22;9540;51.550;7.980;2023-03-11T08:11:08;3.10;99.90
18823;DHT22;9540;51.550;7.980;2023-03-11T08:13:35;3.00;99.90
18823;DHT22;9540;51.550;7.980;2023-03-11T08:16:04;3.20;99.90
18823;DHT22;9540;51.550;7.980;2023-03-11T08:18:32;3.20;99.90
18823;DHT22;9540;51.550;7.980;2023-03-11T08:21:03;3.30;99.90
18823;DHT22;9540;51.550;7.980;2023-03-11T08:23:31;3.50;99.90
18823;DHT22;9540;51.550;7.980;2023-03-11T08:25:58;3.60;99.90
18823;DHT22;9540;51.550;7.980;2023-03-11T08:28:26;4.00;99.90
18823;DHT22;9540;51.550;7.980;2023-03-11T08:30:53;4.00;99.90
18823;DHT22;9540;51.550;7.980;2023-03-11T08:33:21;4.10;99.90
18823;DHT22;9540;51.550;7.980;2023-03-11T08:35:48;4.10;99.90
18823;DHT22;9540;51.550;7.980;2023-03-11T08:38:15;4.50;99.90
18823;DHT22;9540;51.550;7.980;2023-03-11T08:40:42;4.90;99.90
18823;DHT22;9540;51.550;7.980;2023-03-11T08:43:11;5.60;99.90
18823;DHT22;9540;51.550;7.980;2023-03-11T08:45:41;6.10;99.90
18823;DHT22;9540;51.550;7.980;2023-03-11T08:48:09;6.30;99.90
18823;DHT22;9540;51.550;7.980;2023-03-11T08:50:39;6.60;99.90
18823;DHT22;9540;51.550;7.980;2023-03-11T08:53:06;6.70;99.90
18823;DHT22;9540;51.550;7.980;2023-03-11T08:55:34;6.50;99.90
18823;DHT22;9540;51.550;7.980;2023-03-11T08:58:01;6.30;99.90
18823;DHT22;9540;51.550;7.980;2023-03-11T09:00:29;6.40;99.90
18823;DHT22;9540;51.550;7.980;2023-03-11T09:02:57;6.60;99.90
18823;DHT22;9540;51.550;7.980;2023-03-11T09:05:24;7.00;99.90
18823;DHT22;9540;51.550;7.980;2023-03-11T09:07:52;7.50;99.90
18823;DHT22;9540;51.550;7.980;2023-03-11T09:10:22;7.60;99.90
18823;DHT22;9540;51.550;7.980;2023-03-11T09:12:49;7.80;99.90
18823;DHT22;9540;51.550;7.980;2023-03-11T09:15:18;8.40;99.90
18823;DHT22;9540;51.550;7.980;2023-03-11T09:17:48;8.70;99.90
18823;DHT22;9540;51.550;7.980;2023-03-11T09:20:16;8.70;99.90
18823;DHT22;9540;51.550;7.980;2023-03-11T09:22:44;9.00;99.90
18823;DHT22;9540;51.550;7.980;2023-03-11T09:25:11;9.30;99.90
18823;DHT22;9540;51.550;7.980;2023-03-11T09:27:42;9.90;99.90
18823;DHT22;9540;51.550;7.980;2023-03-11T09:30:10;9.60;99.90
18823;DHT22;9540;51.550;7.980;2023-03-11T09:32:37;9.90;95.90
18823;DHT22;9540;51.550;7.980;2023-03-11T09:35:05;9.20;93.20
18823;DHT22;9540;51.550;7.980;2023-03-11T09:37:33;8.10;91.70
18823;DHT22;9540;51.550;7.980;2023-03-11T09:40:01;7.50;99.90
18823;DHT22;9540;51.550;7.980;2023-03-11T09:42:34;8.30;99.90
18823;DHT22;9540;51.550;7.980;2023-03-11T09:45:07;8.60;96.00
18823;DHT22;9540;51.550;7.980;2023-03-11T09:47:39;7.60;95.60
18823;DHT22;9540;51.550;7.980;2023-03-11T09:50:17;6.70;99.90
18823;DHT22;9540;51.550;7.980;2023-03-11T09:52:53;6.80;99.90
18823;DHT22;9540;51.550;7.980;2023-03-11T09:55:38;8.90;99.90
18823;DHT22;9540;51.550;7.980;2023-03-11T09:58:15;10.60;96.00
18823;DHT22;9540;51.550;7.980;2023-03-11T10:00:43;9.70;87.40
18823;DHT22;9540;51.550;7.980;2023-03-11T10:03:26;9.10;92.10
18823;DHT22;9540;51.550;7.980;2023-03-11T10:06:01;8.10;94.00
18823;DHT22;9540;51.550;7.980;2023-03-11T10:08:36;7.10;99.90
18823;DHT22;9540;51.550;7.980;2023-03-11T10:11:12;6.50;99.90
18823;DHT22;9540;51.550;7.980;2023-03-11T10:13:48;6.10;99.90
18823;DHT22;9540;51.550;7.980;2023-03-11T10:16:23;5.90;99.90
18823;DHT22;9540;51.550;7.980;2023-03-11T10:18:57;5.90;99.90
18823;DHT22;9540;51.550;7.980;2023-03-11T10:21:37;5.80;99.90
18823;DHT22;9540;51.550;7.980;2023-03-11T10:24:37;6.20;99.90
18823;DHT22;9540;51.550;7.980;2023-03-11T10:27:12;7.20;99.90
18823;DHT22;9540;51.550;7.980;2023-03-11T10:29:47;7.60;99.90
18823;DHT22;9540;51.550;7.980;2023-03-11T10:32:20;7.30;96.90
18823;DHT22;9540;51.550;7.980;2023-03-11T10:34:53;7.40;99.90
18823;DHT22;9540;51.550;7.980;2023-03-11T10:37:24;7.70;99.90
18823;DHT22;9540;51.550;7.980;2023-03-11T10:39:54;7.60;95.60
18823;DHT22;9540;51.550;7.980;2023-03-11T10:42:26;7.40;99.90
18823;DHT22;9540;51.550;7.980;2023-03-11T10:44:54;7.50;99.90
18823;DHT22;9540;51.550;7.980;2023-03-11T10:47:23;7.30;98.70
18823;DHT22;9540;51.550;7.980;2023-03-11T10:49:51;7.50;99.90
18823;DHT22;9540;51.550;7.980;2023-03-11T10:52:18;7.10;94.00
18823;DHT22;9540;51.550;7.980;2023-03-11T10:54:47;6.60;99.90
18823;DHT22;9540;51.550;7.980;2023-03-11T10:57:23;6.30;99.90
18823;DHT22;9540;51.550;7.980;2023-03-11T10:59:52;5.60;99.90
18823;DHT22;9540;51.550;7.980;2023-03-11T11:02:25;5.70;99.90
18823;DHT22;9540;51.550;7.980;2023-03-11T11:05:24;6.20;99.90
18823;DHT22;9540;51.550;7.980;2023-03-11T11:08:03;6.40;99.90
18823;DHT22;9540;51.550;7.980;2023-03-11T11:10:31;6.20;99.90
18823;DHT22;9540;51.550;7.980;2023-03-11T11:13:02;5.60;99.90
18823;DHT22;9540;51.550;7.980;2023-03-11T11:15:52;5.10;99.90
18823;DHT22;9540;51.550;7.980;2023-03-11T11:18:22;4.90;99.90
18823;DHT22;9540;51.550;7.980;2023-03-11T11:20:55;5.10;99.90
18823;DHT22;9540;51.550;7.980;2023-03-11T11:23:30;5.60;99.90
18823;DHT22;9540;51.550;7.980;2023-03-11T11:25:59;6.00;99.90
18823;DHT22;9540;51.550;7.980;2023-03-11T11:28:28;6.30;99.90
18823;DHT22;9540;51.550;7.980;2023-03-11T11:30:56;7.10;99.90
18823;DHT22;9540;51.550;7.980;2023-03-11T11:33:26;7.60;99.90
18823;DHT22;9540;51.550;7.980;2023-03-11T11:35:55;7.50;95.60
18823;DHT22;9540;51.550;7.980;2023-03-11T11:38:25;7.20;99.90
18823;DHT22;9540;51.550;7.980;2023-03-11T11:40:54;7.30;99.90
18823;DHT22;9540;51.550;7.980;2023-03-11T11:43:32;6.90;98.80
18823;DHT22;9540;51.550;7.980;2023-03-11T11:46:06;6.40;99.90
18823;DHT22;9540;51.550;7.980;2023-03-11T11:48:46;5.90;99.90
18823;DHT22;9540;51.550;7.980;2023-03-11T11:51:19;5.80;99.90
18823;DHT22;9540;51.550;7.980;2023-03-11T11:53:50;6.10;99.90
18823;DHT22;9540;51.550;7.980;2023-03-11T11:56:18;6.20;99.90
18823;DHT22;9540;51.550;7.980;2023-03-11T11:58:47;6.30;99.90
18823;DHT22;9540;51.550;7.980;2023-03-11T12:01:15;6.30;99.90
18823;DHT22;9540;51.550;7.980;2023-03-11T12:07:00;5.90;99.90
18823;DHT22;9540;51.550;7.980;2023-03-11T12:09:36;6.20;99.90
18823;DHT22;9540;51.550;7.980;2023-03-11T12:12:13;6.80;94.60
18823;DHT22;9540;51.550;7.980;2023-03-11T12:14:52;7.70;95.00
18823;DHT22;9540;51.550;7.980;2023-03-11T12:17:22;8.00;93.30
18823;DHT22;9540;51.550;7.980;2023-03-11T12:19:53;8.40;85.00
18823;DHT22;9540;51.550;7.980;2023-03-11T12:22:50;8.70;90.70
18823;DHT22;9540;51.550;7.980;2023-03-11T12:25:25;8.20;81.40
18823;DHT22;9540;51.550;7.980;2023-03-11T12:27:59;7.60;89.00
18823;DHT22;9540;51.550;7.980;2023-03-11T12:30:32;7.30;87.10
18823;DHT22;9540;51.550;7.980;2023-03-11T12:33:03;7.50;84.20
18823;DHT22;9540;51.550;7.980;2023-03-11T12:35:32;7.40;99.90
18823;DHT22;9540;51.550;7.980;2023-03-11T12:38:05;6.90;90.80
18823;DHT22;9540;51.550;7.980;2023-03-11T12:40:57;6.70;97.00
18823;DHT22;9540;51.550;7.980;2023-03-11T12:47:21;6.90;96.40
18823;DHT22;9540;51.550;7.980;2023-03-11T12:49:49;7.20;93.30
18823;DHT22;9540;51.550;7.980;2023-03-11T12:52:27;7.50;99.90
18823;DHT22;9540;51.550;7.980;2023-03-11T13:10:02;6.60;99.90
18823;DHT22;9540;51.550;7.980;2023-03-11T13:12:42;6.50;99.90
18823;DHT22;9540;51.550;7.980;2023-03-11T13:18:21;6.30;92.70
18823;DHT22;9540;51.550;7.980;2023-03-11T13:20:59;6.60;97.60
18823;DHT22;9540;51.550;7.980;2023-03-11T13:23:32;6.70;89.70
18823;DHT22;9540;51.550;7.980;2023-03-11T13:26:29;6.80;93.80
18823;DHT22;9540;51.550;7.980;2023-03-11T13:32:06;6.80;99.10
18823;DHT22;9540;51.550;7.980;2023-03-11T13:34:42;6.80;89.40
18823;DHT22;9540;51.550;7.980;2023-03-11T13:37:20;6.90;92.20
18823;DHT22;9540;51.550;7.980;2023-03-11T13:39:58;7.10;89.70
18823;DHT22;9540;51.550;7.980;2023-03-11T13:42:30;7.00;90.50
18823;DHT22;9540;51.550;7.980;2023-03-11T13:44:59;6.60;99.90
18823;DHT22;9540;51.550;7.980;2023-03-11T13:47:30;6.50;98.50
18823;DHT22;9540;51.550;7.980;2023-03-11T13:50:02;6.50;93.40
18823;DHT22;9540;51.550;7.980;2023-03-11T13:52:33;6.80;99.90
18823;DHT22;9540;51.550;7.980;2023-03-11T13:55:04;7.40;99.90
18823;DHT22;9540;51.550;7.980;2023-03-11T13:57:33;7.50;99.90
18823;DHT22;9540;51.550;7.980;2023-03-11T14:00:09;7.20;91.00
18823;DHT22;9540;51.550;7.980;2023-03-11T14:02:45;7.20;91.40
18823;DHT22;9540;51.550;7.980;2023-03-11T14:05:16;7.30;94.60
18823;DHT22;9540;51.550;7.980;2023-03-11T14:07:45;7.40;93.10
18823;DHT22;9540;51.550;7.980;2023-03-11T14:10:29;7.50;99.90
18823;DHT22;9540;51.550;7.980;2023-03-11T14:13:13;7.00;96.40
18823;DHT22;9540;51.550;7.980;2023-03-11T14:15:52;6.70;99.90
18823;DHT22;9540;51.550;7.980;2023-03-11T14:18:39;6.60;99.40
18823;DHT22;9540;51.550;7.980;2023-03-11T14:21:11;6.70;95.80
18823;DHT22;9540;51.550;7.980;2023-03-11T14:23:42;6.70;91.90
18823;DHT22;9540;51.550;7.980;2023-03-11T14:26:13;7.00;99.90
18823;DHT22;9540;51.550;7.980;2023-03-11T14:28:43;7.10;97.30
18823;DHT22;9540;51.550;7.980;2023-03-11T14:31:23;7.20;95.70
18823;DHT22;9540;51.550;7.980;2023-03-11T14:33:55;7.40;93.00
18823;DHT22;9540;51.550;7.980;2023-03-11T14:36:23;7.60;88.70
18823;DHT22;9540;51.550;7.980;2023-03-11T14:38:51;7.60;91.50
18823;DHT22;9540;51.550;7.980;2023-03-11T14:41:18;7.50;98.90
18823;DHT22;9540;51.550;7.980;2023-03-11T14:43:48;7.50;94.80
18823;DHT22;9540;51.550;7.980;2023-03-11T14:46:21;7.40;95.40
18823;DHT22;9540;51.550;7.980;2023-03-11T14:48:51;7.40;93.30
18823;DHT22;9540;51.550;7.980;2023-03-11T14:51:20;7.30;94.50
18823;DHT22;9540;51.550;7.980;2023-03-11T14:53:55;7.20;93.20
18823;DHT22;9540;51.550;7.980;2023-03-11T14:56:26;7.10;97.80
18823;DHT22;9540;51.550;7.980;2023-03-11T14:59:00;6.90;94.00
18823;DHT22;9540;51.550;7.980;2023-03-11T15:01:35;6.80;99.90
18823;DHT22;9540;51.550;7.980;2023-03-11T15:04:09;6.70;96.20
18823;DHT22;9540;51.550;7.980;2023-03-11T15:06:39;6.80;99.90
18823;DHT22;9540;51.550;7.980;2023-03-11T15:09:11;6.70;98.50
18823;DHT22;9540;51.550;7.980;2023-03-11T15:11:47;6.70;99.90
18823;DHT22;9540;51.550;7.980;2023-03-11T15:14:25;6.80;96.20
18823;DHT22;9540;51.550;7.980;2023-03-11T15:16:53;6.70;95.30
18823;DHT22;9540;51.550;7.980;2023-03-11T15:19:31;6.70;99.90
18823;DHT22;9540;51.550;7.980;2023-03-11T15:22:04;6.70;92.50
18823;DHT22;9540;51.550;7.980;2023-03-11T15:24:33;6.70;93.40
18823;DHT22;9540;51.550;7.980;2023-03-11T15:27:02;6.70;93.00
18823;DHT22;9540;51.550;7.980;2023-03-11T15:29:31;6.60;92.20
18823;DHT22;9540;51.550;7.980;2023-03-11T15:31:59;6.50;90.40
18823;DHT22;9540;51.550;7.980;2023-03-11T15:34:28;6.40;94.70
18823;DHT22;9540;51.550;7.980;2023-03-11T15:37:14;6.40;96.20
18823;DHT22;9540;51.550;7.980;2023-03-11T15:39:47;6.40;99.90
18823;DHT22;9540;51.550;7.980;2023-03-11T15:42:23;6.30;91.20
18823;DHT22;9540;51.550;7.980;2023-03-11T15:45:15;6.10;94.20
18823;DHT22;9540;51.550;7.980;2023-03-11T15:47:43;5.90;92.70
18823;DHT22;9540;51.550;7.980;2023-03-11T15:50:15;5.70;99.90
18823;DHT22;9540;51.550;7.980;2023-03-11T15:52:43;5.40;99.90
18823;DHT22;9540;51.550;7.980;2023-03-11T15:55:12;5.20;98.90
18823;DHT22;9540;51.550;7.980;2023-03-11T15:57:40;5.00;99.90
18823;DHT22;9540;51.550;7.980;2023-03-11T16:00:14;4.90;99.90
18823;DHT22;9540;51.550;7.980;2023-03-11T16:02:43;4.80;99.90
18823;DHT22;9540;51.550;7.980;2023-03-11T16:05:15;4.70;99.90
18823;DHT22;9540;51.550;7.980;2023-03-11T16:07:43;4.60;99.90
18823;DHT22;9540;51.550;7.980;2023-03-11T16:10:14;4.50;99.90
18823;DHT22;9540;51.550;7.980;2023-03-11T16:12:43;4.40;99.90
18823;DHT22;9540;51.550;7.980;2023-03-11T16:15:19;4.40;99.90
18823;DHT22;9540;51.550;7.980;2023-03-11T16:17:49;4.30;99.90
18823;DHT22;9540;51.550;7.980;2023-03-11T16:20:17;4.20;99.90
18823;DHT22;9540;51.550;7.980;2023-03-11T16:22:45;4.20;99.90
18823;DHT22;9540;51.550;7.980;2023-03-11T16:25:19;4.10;99.90
18823;DHT22;9540;51.550;7.980;2023-03-11T16:27:48;4.00;99.90
18823;DHT22;9540;51.550;7.980;2023-03-11T16:30:16;3.90;99.90
18823;DHT22;9540;51.550;7.980;2023-03-11T16:32:44;3.80;99.90
18823;DHT22;9540;51.550;7.980;2023-03-11T16:35:16;3.70;99.90
18823;DHT22;9540;51.550;7.980;2023-03-11T16:37:46;3.60;99.90
18823;DHT22;9540;51.550;7.980;2023-03-11T16:40:18;3.50;99.90
18823;DHT22;9540;51.550;7.980;2023-03-11T16:42:48;3.40;99.90
18823;DHT22;9540;51.550;7.980;2023-03-11T16:45:16;3.30;99.90
18823;DHT22;9540;51.550;7.980;2023-03-11T16:47:44;3.20;99.90
18823;DHT22;9540;51.550;7.980;2023-03-11T16:50:12;3.10;99.90